createdAt,value
2017-11-16T00:00:57.781Z,49.67
2017-11-16T00:03:24.751Z,44.67
2017-11-16T00:05:50.964Z,50.27
2017-11-16T00:08:17.975Z,45.53
2017-11-16T00:10:44.201Z,45.53
2017-11-16T00:13:10.404Z,43.93
2017-11-16T00:15:36.618Z,46.33
2017-11-16T00:18:02.873Z,41.27
2017-11-16T00:20:29.145Z,40.67
2017-11-16T00:22:56.100Z,43.70
2017-11-16T00:25:23.066Z,41.83
2017-11-16T00:27:49.253Z,40.17
2017-11-16T00:30:15.472Z,46.80
2017-11-16T00:32:42.487Z,49.13
2017-11-16T00:35:08.746Z,38.13
2017-11-16T00:37:34.965Z,40.77
2017-11-16T00:40:01.186Z,39.60
2017-11-16T00:42:27.475Z,46.27
2017-11-16T00:44:53.685Z,40.10
2017-11-16T00:47:20.682Z,37.10
2017-11-16T00:49:46.909Z,43.17
2017-11-16T00:52:13.185Z,38.90
2017-11-16T00:54:40.154Z,37.23
2017-11-16T00:59:59.597Z,38.63
2017-11-16T01:02:25.775Z,38.40
2017-11-16T01:04:51.976Z,35.90
2017-11-16T01:07:18.237Z,37.87
2017-11-16T01:09:44.482Z,41.03
2017-11-16T01:12:10.765Z,32.03
2017-11-16T01:14:36.977Z,38.83
2017-11-16T01:17:03.257Z,32.47
2017-11-16T01:19:29.488Z,34.07
2017-11-16T01:21:55.738Z,29.17
2017-11-16T01:24:22.720Z,31.33
2017-11-16T01:26:49.024Z,31.40
2017-11-16T01:29:15.201Z,30.30
2017-11-16T01:31:41.457Z,30.97
2017-11-16T01:34:08.435Z,28.57
2017-11-16T01:36:34.706Z,30.20
2017-11-16T01:39:00.936Z,30.07
2017-11-16T01:41:27.177Z,29.00
2017-11-16T01:43:53.382Z,31.40
2017-11-16T01:46:19.682Z,28.50
2017-11-16T01:48:45.959Z,29.73
2017-11-16T01:51:12.197Z,28.80
2017-11-16T01:53:39.167Z,29.53
2017-11-16T01:56:06.142Z,30.13
2017-11-16T01:58:32.469Z,24.47
2017-11-16T02:00:58.741Z,26.67
2017-11-16T02:03:24.975Z,27.20
2017-11-16T02:05:51.969Z,21.30
2017-11-16T02:08:18.231Z,24.73
2017-11-16T02:10:44.529Z,26.53
2017-11-16T02:13:10.794Z,27.57
2017-11-16T02:15:37.035Z,29.40
2017-11-16T02:18:03.293Z,26.37
2017-11-16T02:20:30.247Z,28.90
2017-11-16T02:22:56.476Z,27.40
2017-11-16T02:25:22.790Z,27.07
2017-11-16T02:27:49.802Z,19.97
2017-11-16T02:30:16.073Z,22.57
2017-11-16T02:32:43.134Z,25.50
2017-11-16T02:35:09.416Z,21.33
2017-11-16T02:37:35.646Z,17.97
2017-11-16T02:40:01.920Z,20.27
2017-11-16T02:42:28.222Z,16.10
2017-11-16T02:44:55.235Z,18.70
2017-11-16T02:47:21.456Z,19.37
2017-11-16T02:49:47.738Z,16.13
2017-11-16T02:52:14.740Z,17.43
2017-11-16T02:54:41.021Z,18.67
2017-11-16T02:57:08.072Z,17.30
2017-11-16T02:59:35.070Z,16.47
2017-11-16T03:02:01.383Z,18.43
2017-11-16T03:04:27.701Z,15.20
2017-11-16T03:06:53.934Z,14.80
2017-11-16T03:09:20.196Z,12.77
2017-11-16T03:11:46.464Z,17.77
2017-11-16T03:14:12.694Z,16.80
2017-11-16T03:16:39.668Z,16.67
2017-11-16T03:19:05.888Z,19.30
2017-11-16T03:21:32.492Z,20.43
2017-11-16T03:23:59.490Z,15.90
2017-11-16T03:26:25.676Z,15.53
2017-11-16T03:28:52.690Z,17.70
2017-11-16T03:31:18.890Z,16.97
2017-11-16T03:33:45.212Z,13.50
2017-11-16T03:36:11.466Z,15.27
2017-11-16T03:38:37.721Z,16.87
2017-11-16T03:41:04.007Z,16.57
2017-11-16T03:43:30.247Z,13.90
2017-11-16T03:45:56.479Z,15.67
2017-11-16T03:48:22.721Z,13.77
2017-11-16T03:50:49.004Z,15.50
2017-11-16T03:53:15.265Z,16.23
2017-11-16T03:55:41.534Z,16.93
2017-11-16T03:58:08.501Z,17.13
2017-11-16T04:00:35.233Z,15.40
2017-11-16T04:03:01.446Z,16.07
2017-11-16T04:05:28.398Z,17.10
2017-11-16T04:07:55.345Z,19.10
2017-11-16T04:10:22.363Z,14.03
2017-11-16T04:12:48.636Z,19.70
2017-11-16T04:15:14.882Z,20.37
2017-11-16T04:17:41.061Z,12.90
2017-11-16T04:20:07.353Z,13.63
2017-11-16T04:22:33.659Z,15.90
2017-11-16T04:24:59.888Z,19.37
2017-11-16T04:27:26.158Z,15.10
2017-11-16T04:29:52.399Z,13.60
2017-11-16T04:32:19.447Z,18.47
2017-11-16T04:34:45.692Z,19.10
2017-11-16T04:37:12.786Z,16.93
2017-11-16T04:39:39.447Z,16.40
2017-11-16T04:42:05.735Z,17.50
2017-11-16T04:44:31.951Z,19.27
2017-11-16T04:46:58.228Z,24.33
2017-11-16T04:49:24.465Z,14.60
2017-11-16T04:51:50.726Z,19.27
2017-11-16T04:54:17.720Z,16.50
2017-11-16T04:56:43.920Z,17.63
2017-11-16T04:59:10.129Z,15.67
2017-11-16T05:01:37.154Z,20.23
2017-11-16T05:04:03.442Z,17.00
2017-11-16T05:06:29.680Z,18.23
2017-11-16T05:08:55.984Z,15.57
2017-11-16T05:11:22.312Z,18.00
2017-11-16T05:13:48.524Z,19.00
2017-11-16T05:16:15.484Z,14.03
2017-11-16T05:18:41.756Z,17.90
2017-11-16T05:21:08.095Z,15.90
2017-11-16T05:23:34.365Z,16.07
2017-11-16T05:26:01.368Z,16.10
2017-11-16T05:28:27.650Z,15.83
2017-11-16T05:30:53.968Z,13.90
2017-11-16T05:33:32.413Z,17.13
2017-11-16T05:35:58.622Z,15.47
2017-11-16T05:38:24.913Z,18.80
2017-11-16T05:40:51.136Z,20.30
2017-11-16T05:43:17.406Z,19.47
2017-11-16T05:45:43.675Z,17.70
2017-11-16T05:48:09.936Z,19.40
2017-11-16T05:50:36.172Z,18.83
2017-11-16T05:53:02.486Z,20.30
2017-11-16T05:55:28.981Z,18.70
2017-11-16T05:57:55.270Z,20.73
2017-11-16T06:00:22.272Z,18.77
2017-11-16T06:02:48.609Z,20.83
2017-11-16T06:05:14.909Z,18.40
2017-11-16T06:07:41.138Z,15.90
2017-11-16T06:10:07.352Z,16.20
2017-11-16T06:12:33.591Z,14.40
2017-11-16T06:14:59.836Z,16.80
2017-11-16T06:17:26.143Z,16.60
2017-11-16T06:19:52.376Z,16.43
2017-11-16T06:22:18.636Z,17.30
2017-11-16T06:24:44.857Z,15.17
2017-11-16T06:27:11.115Z,20.07
2017-11-16T06:29:37.334Z,19.27
2017-11-16T06:32:03.563Z,19.73
2017-11-16T06:34:29.803Z,16.80
2017-11-16T06:36:56.088Z,17.20
2017-11-16T06:39:22.334Z,17.87
2017-11-16T06:41:48.585Z,19.23
2017-11-16T06:44:14.839Z,17.17
2017-11-16T06:46:41.828Z,17.13
2017-11-16T06:49:08.079Z,21.20
2017-11-16T06:51:34.379Z,25.37
2017-11-16T06:54:00.633Z,18.03
2017-11-16T06:56:26.819Z,21.10
2017-11-16T06:58:53.106Z,20.40
2017-11-16T07:01:19.413Z,20.70
2017-11-16T07:03:45.653Z,17.10
2017-11-16T07:06:11.916Z,17.33
2017-11-16T07:08:38.836Z,24.00
2017-11-16T07:11:05.082Z,15.70
2017-11-16T07:13:31.324Z,18.97
2017-11-16T07:15:58.310Z,23.63
2017-11-16T07:18:24.545Z,15.93
2017-11-16T07:20:50.733Z,20.73
2017-11-16T07:23:17.660Z,14.50
2017-11-16T07:25:44.665Z,18.40
2017-11-16T07:28:10.935Z,16.40
2017-11-16T07:30:37.870Z,17.20
2017-11-16T07:33:04.172Z,15.30
2017-11-16T07:35:30.378Z,16.80
2017-11-16T07:37:56.629Z,17.27
2017-11-16T07:40:22.875Z,15.03
2017-11-16T07:42:49.161Z,16.33
2017-11-16T07:45:15.441Z,15.50
2017-11-16T07:47:41.720Z,19.33
2017-11-16T07:50:07.980Z,18.00
2017-11-16T07:52:34.273Z,17.33
2017-11-16T07:55:00.550Z,16.13
2017-11-16T07:57:26.806Z,17.50
2017-11-16T07:59:53.769Z,16.20
2017-11-16T08:02:20.703Z,15.90
2017-11-16T08:04:47.628Z,18.00
2017-11-16T08:07:13.909Z,17.30
2017-11-16T08:09:40.170Z,18.50
2017-11-16T08:12:06.367Z,18.00
2017-11-16T08:14:39.477Z,16.00
2017-11-16T08:17:05.688Z,12.43
2017-11-16T08:19:31.888Z,12.13
2017-11-16T08:21:58.901Z,13.83
2017-11-16T08:24:25.017Z,15.97
2017-11-16T08:26:51.119Z,13.17
2017-11-16T08:29:17.226Z,9.47
2017-11-16T08:31:43.350Z,10.47
2017-11-16T08:34:09.439Z,12.67
2017-11-16T08:36:35.587Z,9.07
2017-11-16T08:39:02.471Z,13.13
2017-11-16T08:41:28.628Z,11.00
2017-11-16T08:43:55.507Z,11.03
2017-11-16T08:46:21.630Z,10.17
2017-11-16T08:48:48.491Z,9.43
2017-11-16T08:51:14.645Z,8.70
2017-11-16T08:53:40.791Z,9.00
2017-11-16T08:56:07.667Z,9.03
2017-11-16T08:58:33.821Z,10.87
2017-11-16T09:00:59.960Z,10.47
2017-11-16T09:03:26.101Z,9.10
2017-11-16T09:05:52.269Z,9.20
2017-11-16T09:08:19.136Z,7.13
2017-11-16T09:10:45.282Z,9.70
2017-11-16T09:13:11.434Z,12.60
2017-11-16T09:15:37.543Z,10.90
2017-11-16T09:18:03.679Z,10.03
2017-11-16T09:20:29.817Z,10.33
2017-11-16T09:22:55.947Z,8.90
2017-11-16T09:25:22.095Z,9.60
2017-11-16T09:27:48.992Z,8.17
2017-11-16T09:30:15.141Z,11.60
2017-11-16T09:32:42.013Z,8.30
2017-11-16T09:35:08.901Z,8.80
2017-11-16T09:37:35.046Z,8.83
2017-11-16T09:40:01.171Z,9.73
2017-11-16T09:42:27.327Z,11.30
2017-11-16T09:44:54.170Z,12.13
2017-11-16T09:47:21.051Z,11.87
2017-11-16T09:49:47.185Z,9.70
2017-11-16T09:52:13.318Z,8.33
2017-11-16T09:54:39.470Z,9.70
2017-11-16T09:57:06.326Z,11.70
2017-11-16T09:59:32.437Z,8.93
2017-11-16T10:01:59.274Z,9.27
2017-11-16T10:04:25.414Z,14.60
2017-11-16T10:06:51.522Z,8.13
2017-11-16T10:09:17.630Z,8.30
2017-11-16T10:11:43.755Z,8.10
2017-11-16T10:14:09.865Z,7.77
2017-11-16T10:16:35.974Z,6.87
2017-11-16T10:19:02.118Z,7.90
2017-11-16T10:21:28.234Z,8.83
2017-11-16T10:23:54.319Z,10.63
2017-11-16T10:26:21.215Z,12.10
2017-11-16T10:28:47.534Z,9.90
2017-11-16T10:31:13.741Z,11.67
2017-11-16T10:33:40.637Z,10.53
2017-11-16T10:36:07.052Z,7.67
2017-11-16T10:38:33.207Z,7.17
2017-11-16T10:40:59.340Z,9.00
2017-11-16T10:43:25.478Z,6.60
2017-11-16T10:45:51.597Z,9.47
2017-11-16T10:48:18.453Z,12.50
2017-11-16T10:50:44.574Z,10.33
2017-11-16T10:53:11.447Z,8.77
2017-11-16T10:55:38.367Z,8.43
2017-11-16T10:58:05.242Z,7.53
2017-11-16T11:00:32.376Z,10.33
2017-11-16T11:02:59.266Z,9.40
2017-11-16T11:05:25.951Z,7.87
2017-11-16T11:07:52.841Z,10.17
2017-11-16T11:10:18.949Z,7.60
2017-11-16T11:12:45.063Z,9.03
2017-11-16T11:15:11.181Z,8.97
2017-11-16T11:17:38.044Z,8.27
2017-11-16T11:20:04.205Z,8.13
2017-11-16T11:22:30.318Z,10.17
2017-11-16T11:24:56.453Z,21.93
2017-11-16T11:27:22.602Z,15.27
2017-11-16T11:29:49.452Z,11.97
2017-11-16T11:32:15.577Z,10.90
2017-11-16T11:34:41.720Z,11.13
2017-11-16T11:37:08.574Z,10.53
2017-11-16T11:39:34.748Z,8.20
2017-11-16T11:42:00.945Z,8.40
2017-11-16T11:44:27.088Z,7.80
2017-11-16T11:46:53.214Z,8.70
2017-11-16T11:49:19.339Z,9.30
2017-11-16T11:51:45.434Z,9.73
2017-11-16T11:54:11.606Z,9.70
2017-11-16T11:56:37.714Z,12.77
2017-11-16T11:59:03.830Z,8.20
2017-11-16T12:01:29.929Z,13.53
2017-11-16T12:03:56.835Z,8.50
2017-11-16T12:06:22.961Z,9.20
2017-11-16T12:08:49.062Z,8.73
2017-11-16T12:11:15.190Z,7.80
2017-11-16T12:13:41.315Z,9.93
2017-11-16T12:16:07.426Z,8.40
2017-11-16T12:18:33.546Z,8.67
2017-11-16T12:20:59.711Z,10.90
2017-11-16T12:23:25.814Z,12.73
2017-11-16T12:25:51.967Z,7.10
2017-11-16T12:28:18.066Z,9.00
2017-11-16T12:30:44.234Z,9.43
2017-11-16T12:33:10.394Z,8.07
2017-11-16T12:35:36.809Z,9.00
2017-11-16T12:38:03.673Z,8.20
2017-11-16T12:40:29.818Z,8.73
2017-11-16T12:42:56.110Z,9.93
2017-11-16T12:45:23.013Z,8.87
2017-11-16T12:47:49.173Z,8.33
2017-11-16T12:50:15.330Z,8.70
2017-11-16T12:52:41.529Z,8.33
2017-11-16T12:55:07.727Z,7.97
2017-11-16T12:57:33.876Z,7.80
2017-11-16T13:00:00.022Z,9.20
2017-11-16T13:02:26.911Z,8.60
2017-11-16T13:04:53.031Z,12.53
2017-11-16T13:07:19.136Z,6.93
2017-11-16T13:09:46.233Z,8.17
2017-11-16T13:12:12.382Z,11.10
2017-11-16T13:14:38.526Z,8.80
2017-11-16T13:17:05.450Z,8.47
2017-11-16T13:19:31.586Z,8.90
2017-11-16T13:21:58.802Z,12.00
2017-11-16T13:24:24.951Z,7.80
2017-11-16T13:26:51.043Z,7.90
2017-11-16T13:29:17.148Z,10.30
2017-11-16T13:31:43.271Z,13.70
2017-11-16T13:34:09.357Z,9.80
2017-11-16T13:36:35.475Z,8.17
2017-11-16T13:39:01.594Z,7.43
2017-11-16T13:41:28.422Z,10.53
2017-11-16T13:43:54.546Z,9.20
2017-11-16T13:46:20.699Z,7.43
2017-11-16T13:48:46.823Z,6.50
2017-11-16T13:51:12.951Z,8.73
2017-11-16T13:53:39.054Z,9.63
2017-11-16T13:56:05.181Z,9.33
2017-11-16T13:58:31.270Z,10.00
2017-11-16T14:00:57.439Z,9.40
2017-11-16T14:03:23.554Z,8.80
2017-11-16T14:05:49.671Z,10.83
2017-11-16T14:08:15.806Z,10.00
2017-11-16T14:10:42.170Z,11.00
2017-11-16T14:13:09.011Z,10.27
2017-11-16T14:15:35.132Z,10.40
2017-11-16T14:18:02.005Z,13.03
2017-11-16T14:20:28.122Z,12.37
2017-11-16T14:22:54.953Z,13.97
2017-11-16T14:25:21.846Z,12.27
2017-11-16T14:27:47.941Z,11.93
2017-11-16T14:30:14.052Z,12.47
2017-11-16T14:32:40.925Z,13.20
2017-11-16T14:35:07.024Z,14.90
2017-11-16T14:37:33.866Z,13.13
2017-11-16T14:40:00.739Z,13.10
2017-11-16T14:42:26.911Z,20.30
2017-11-16T14:44:53.071Z,12.10
2017-11-16T14:47:19.214Z,13.83
2017-11-16T14:49:45.327Z,11.43
2017-11-16T14:52:11.438Z,13.80
2017-11-16T14:54:38.328Z,13.57
2017-11-16T14:57:04.475Z,12.53
2017-11-16T14:59:30.661Z,12.20
2017-11-16T15:01:56.816Z,12.40
2017-11-16T15:04:22.918Z,13.40
2017-11-16T15:06:49.032Z,13.33
2017-11-16T15:09:15.147Z,10.43
2017-11-16T15:11:42.014Z,18.43
2017-11-16T15:14:08.134Z,15.63
2017-11-16T15:16:34.242Z,13.70
2017-11-16T15:19:01.083Z,11.57
2017-11-16T15:21:27.934Z,17.20
2017-11-16T15:23:54.093Z,17.00
2017-11-16T15:26:20.221Z,28.03
2017-11-16T15:28:46.339Z,14.13
2017-11-16T15:31:12.463Z,13.73
2017-11-16T15:33:38.622Z,12.67
2017-11-16T15:36:04.758Z,15.00
2017-11-16T15:38:30.886Z,21.33
2017-11-16T15:40:56.992Z,18.17
2017-11-16T15:43:23.115Z,18.47
2017-11-16T15:45:49.267Z,15.50
2017-11-16T15:48:15.382Z,15.20
2017-11-16T15:50:42.285Z,17.30
2017-11-16T15:53:08.411Z,14.63
2017-11-16T15:55:34.520Z,15.20
2017-11-16T15:58:00.602Z,17.00
2017-11-16T16:00:27.451Z,16.40
2017-11-16T16:02:53.551Z,14.27
2017-11-16T16:05:19.694Z,14.50
2017-11-16T16:07:46.559Z,25.03
2017-11-16T16:10:13.415Z,15.70
2017-11-16T16:12:40.297Z,16.73
2017-11-16T16:15:06.413Z,13.70
2017-11-16T16:17:32.534Z,14.80
2017-11-16T16:19:58.666Z,15.10
2017-11-16T16:22:24.782Z,15.43
2017-11-16T16:24:50.908Z,15.30
2017-11-16T16:27:17.026Z,13.87
2017-11-16T16:29:43.136Z,25.10
2017-11-16T16:32:09.976Z,16.00
2017-11-16T16:34:36.878Z,20.03
2017-11-16T16:37:02.994Z,16.73
2017-11-16T16:39:29.135Z,20.20
2017-11-16T16:41:55.524Z,17.67
2017-11-16T16:44:21.654Z,17.13
2017-11-16T16:46:47.776Z,15.90
2017-11-16T16:49:13.927Z,17.03
2017-11-16T16:51:40.061Z,19.37
2017-11-16T16:54:06.198Z,14.87
2017-11-16T16:56:32.332Z,16.90
2017-11-16T16:58:58.438Z,17.83
2017-11-16T17:01:24.561Z,15.60
2017-11-16T17:03:50.689Z,12.70
2017-11-16T17:06:16.811Z,18.27
2017-11-16T17:08:42.959Z,18.93
2017-11-16T17:11:09.125Z,20.03
2017-11-16T17:13:36.027Z,17.30
2017-11-16T17:16:02.220Z,17.33
2017-11-16T17:18:28.437Z,15.47
2017-11-16T17:20:54.568Z,22.07
2017-11-16T17:23:20.749Z,17.47
2017-11-16T17:25:46.968Z,17.30
2017-11-16T17:28:13.121Z,16.37
2017-11-16T17:30:40.069Z,19.30
2017-11-16T17:33:07.049Z,19.27
2017-11-16T17:35:33.229Z,19.20
2017-11-16T17:37:59.444Z,20.77
2017-11-16T17:40:26.401Z,21.37
2017-11-16T17:42:53.414Z,22.57
2017-11-16T17:45:19.651Z,21.55
2017-11-16T17:47:45.903Z,21.53
2017-11-16T17:50:12.031Z,21.80
2017-11-16T17:52:38.221Z,23.00
2017-11-16T17:55:04.416Z,22.93
2017-11-16T17:57:30.572Z,22.13
2017-11-16T17:59:56.778Z,24.50
2017-11-16T18:02:23.069Z,28.13
2017-11-16T18:04:49.289Z,23.30
2017-11-16T18:07:15.470Z,22.13
2017-11-16T18:09:41.598Z,22.40
2017-11-16T18:12:08.679Z,30.30
2017-11-16T18:14:34.851Z,25.10
2017-11-16T18:17:01.758Z,27.57
2017-11-16T18:19:27.953Z,30.57
2017-11-16T18:21:54.188Z,29.43
2017-11-16T18:24:20.334Z,29.33
2017-11-16T18:26:46.569Z,29.90
2017-11-16T18:29:12.777Z,28.87
2017-11-16T18:31:38.991Z,30.13
2017-11-16T18:34:05.297Z,29.23
2017-11-16T18:36:31.689Z,32.90
2017-11-16T18:38:58.570Z,30.70
2017-11-16T18:41:25.458Z,28.00
2017-11-16T18:43:51.641Z,30.30
2017-11-16T18:46:17.837Z,35.47
2017-11-16T18:48:44.429Z,32.00
2017-11-16T18:51:10.748Z,36.27
2017-11-16T18:53:37.654Z,31.90
2017-11-16T18:56:03.822Z,29.80
2017-11-16T18:58:30.825Z,35.17
2017-11-16T19:00:57.004Z,33.33
2017-11-16T19:03:23.866Z,34.40
2017-11-16T19:05:50.057Z,34.30
2017-11-16T19:08:16.257Z,35.10
2017-11-16T19:10:43.256Z,35.37
2017-11-16T19:13:09.473Z,29.80
2017-11-16T19:15:35.725Z,30.67
2017-11-16T19:18:01.876Z,34.23
2017-11-16T19:20:28.077Z,31.90
2017-11-16T19:22:54.265Z,33.43
2017-11-16T19:25:23.240Z,40.10
2017-11-16T19:27:50.200Z,35.70
2017-11-16T19:30:16.402Z,34.23
2017-11-16T19:32:42.620Z,36.53
2017-11-16T19:35:09.493Z,35.70
2017-11-16T19:37:36.745Z,34.30
2017-11-16T19:40:03.670Z,32.87
2017-11-16T19:42:30.633Z,30.00
2017-11-16T19:44:57.592Z,23.63
2017-11-16T19:47:23.789Z,25.70
2017-11-16T19:49:50.758Z,28.30
2017-11-16T19:52:16.971Z,22.40
2017-11-16T19:54:43.113Z,24.73
2017-11-16T19:57:10.061Z,22.90
2017-11-16T19:59:36.258Z,21.27
2017-11-16T20:02:02.468Z,21.90
2017-11-16T20:04:28.676Z,20.87
2017-11-16T20:06:54.901Z,20.93
2017-11-16T20:09:21.128Z,21.70
2017-11-16T20:11:47.312Z,22.17
2017-11-16T20:14:14.281Z,19.50
2017-11-16T20:16:40.625Z,20.63
2017-11-16T20:19:06.830Z,17.77
2017-11-16T20:21:40.786Z,20.07
2017-11-16T20:24:13.068Z,22.20
2017-11-16T20:29:26.482Z,20.37
2017-11-16T20:31:52.663Z,20.40
2017-11-16T20:34:18.876Z,16.63
2017-11-16T20:36:55.764Z,17.70
2017-11-16T20:42:46.045Z,16.77
2017-11-16T20:45:27.136Z,18.40
2017-11-16T20:47:59.456Z,19.20
2017-11-16T20:50:32.539Z,22.73
2017-11-16T20:52:59.511Z,18.50
2017-11-16T20:55:41.247Z,17.60
2017-11-16T20:58:08.278Z,17.50
2017-11-16T21:00:34.557Z,20.47
2017-11-16T21:03:00.724Z,22.30
2017-11-16T21:05:27.023Z,19.87
2017-11-16T21:07:53.176Z,20.40
2017-11-16T21:10:19.410Z,25.33
2017-11-16T21:12:45.602Z,20.00
2017-11-16T21:15:12.548Z,19.27
2017-11-16T21:17:38.787Z,19.50
2017-11-16T21:20:04.979Z,19.10
2017-11-16T21:22:31.121Z,17.00
2017-11-16T21:24:58.084Z,19.07
2017-11-16T21:27:24.332Z,20.23
2017-11-16T21:29:50.498Z,22.33
2017-11-16T21:32:16.656Z,20.10
2017-11-16T21:34:42.871Z,21.97
2017-11-16T21:37:09.856Z,18.70
2017-11-16T21:39:36.128Z,20.47
2017-11-16T21:42:02.307Z,17.40
2017-11-16T21:44:28.520Z,21.93
2017-11-16T21:46:54.805Z,15.40
2017-11-16T21:49:21.089Z,19.43
2017-11-16T21:51:47.337Z,19.93
2017-11-16T21:54:13.554Z,15.70
2017-11-16T21:56:39.772Z,16.63
2017-11-16T21:59:05.990Z,16.37
2017-11-16T22:01:32.246Z,18.87
2017-11-16T22:03:58.420Z,16.10
2017-11-16T22:06:24.748Z,17.60
2017-11-16T22:08:50.983Z,14.60
2017-11-16T22:11:17.238Z,19.47
2017-11-16T22:13:43.403Z,19.70
2017-11-16T22:16:09.661Z,19.37
2017-11-16T22:18:35.941Z,16.63
2017-11-16T22:21:02.205Z,23.03
2017-11-16T22:23:28.384Z,20.17
2017-11-16T22:25:55.410Z,18.50
2017-11-16T22:28:22.318Z,19.13
2017-11-16T22:30:48.525Z,21.33
2017-11-16T22:33:14.822Z,20.53
2017-11-16T22:35:41.004Z,20.10
2017-11-16T22:38:07.178Z,19.70
2017-11-16T22:40:34.234Z,20.77
2017-11-16T22:43:00.527Z,20.97
2017-11-16T22:45:26.718Z,20.20
2017-11-16T22:47:53.018Z,19.83
2017-11-16T22:50:19.199Z,26.93
2017-11-16T22:52:45.412Z,23.83
2017-11-16T22:55:11.657Z,24.80
2017-11-16T22:57:37.846Z,24.47
2017-11-16T23:00:04.274Z,27.67
2017-11-16T23:02:30.419Z,24.20
2017-11-16T23:04:56.637Z,26.97
2017-11-16T23:07:22.860Z,27.53
2017-11-16T23:09:49.113Z,26.23
2017-11-16T23:12:15.412Z,20.60
2017-11-16T23:14:41.632Z,23.50
2017-11-16T23:17:07.864Z,22.00
2017-11-16T23:19:34.972Z,21.90
2017-11-16T23:22:01.908Z,20.90
2017-11-16T23:24:28.150Z,28.70
2017-11-16T23:26:54.323Z,27.23
2017-11-16T23:29:20.524Z,24.67
2017-11-16T23:31:47.593Z,22.10
2017-11-16T23:34:13.806Z,20.80
2017-11-16T23:36:40.810Z,19.47
2017-11-16T23:39:07.053Z,21.77
2017-11-16T23:41:33.270Z,20.70
2017-11-16T23:44:00.237Z,24.13
2017-11-16T23:46:26.406Z,21.90
2017-11-16T23:48:52.671Z,17.57
2017-11-16T23:51:18.854Z,26.33
2017-11-16T23:53:45.016Z,21.37
2017-11-16T23:56:11.216Z,20.30
2017-11-16T23:58:37.337Z,20.40
